sensor_id;sensor_type;location;lat;lon;timestamp;P1;durP1;ratioP1;P2;durP2;ratioP2
9413;SDS011;4746;35.664;139.738;2022-08-26T00:01:28;27.98;;;17.48;;
9413;SDS011;4746;35.664;139.738;2022-08-26T00:03:57;23.38;;;17.08;;
9413;SDS011;4746;35.664;139.738;2022-08-26T00:06:25;25.75;;;16.98;;
9413;SDS011;4746;35.664;139.738;2022-08-26T00:08:55;23.65;;;16.65;;
9413;SDS011;4746;35.664;139.738;2022-08-26T00:11:25;23.17;;;16.48;;
9413;SDS011;4746;35.664;139.738;2022-08-26T00:13:53;21.80;;;15.27;;
9413;SDS011;4746;35.664;139.738;2022-08-26T00:16:25;25.58;;;16.65;;
9413;SDS011;4746;35.664;139.738;2022-08-26T00:18:54;27.17;;;16.05;;
9413;SDS011;4746;35.664;139.738;2022-08-26T00:21:22;23.13;;;15.75;;
9413;SDS011;4746;35.664;139.738;2022-08-26T00:23:49;25.30;;;15.55;;
9413;SDS011;4746;35.664;139.738;2022-08-26T00:26:17;30.15;;;16.15;;
9413;SDS011;4746;35.664;139.738;2022-08-26T00:28:45;26.95;;;16.30;;
9413;SDS011;4746;35.664;139.738;2022-08-26T00:31:14;24.83;;;15.68;;
9413;SDS011;4746;35.664;139.738;2022-08-26T00:33:41;18.50;;;14.32;;
9413;SDS011;4746;35.664;139.738;2022-08-26T00:36:09;25.10;;;16.02;;
9413;SDS011;4746;35.664;139.738;2022-08-26T00:38:37;23.13;;;15.30;;
9413;SDS011;4746;35.664;139.738;2022-08-26T00:41:04;24.95;;;14.88;;
9413;SDS011;4746;35.664;139.738;2022-08-26T00:43:33;22.65;;;14.18;;
9413;SDS011;4746;35.664;139.738;2022-08-26T00:46:18;25.00;;;16.35;;
9413;SDS011;4746;35.664;139.738;2022-08-26T00:48:56;26.60;;;15.70;;
9413;SDS011;4746;35.664;139.738;2022-08-26T00:51:39;21.90;;;15.68;;
9413;SDS011;4746;35.664;139.738;2022-08-26T00:54:14;21.80;;;14.65;;
9413;SDS011;4746;35.664;139.738;2022-08-26T00:56:54;25.08;;;15.70;;
9413;SDS011;4746;35.664;139.738;2022-08-26T00:59:30;24.08;;;15.60;;
9413;SDS011;4746;35.664;139.738;2022-08-26T01:01:58;22.48;;;15.63;;
9413;SDS011;4746;35.664;139.738;2022-08-26T01:04:27;21.08;;;15.35;;
9413;SDS011;4746;35.664;139.738;2022-08-26T01:06:58;23.13;;;17.27;;
9413;SDS011;4746;35.664;139.738;2022-08-26T01:09:27;24.25;;;17.13;;
9413;SDS011;4746;35.664;139.738;2022-08-26T01:11:58;25.60;;;16.70;;
9413;SDS011;4746;35.664;139.738;2022-08-26T01:14:31;27.35;;;17.38;;
9413;SDS011;4746;35.664;139.738;2022-08-26T01:17:02;25.83;;;17.88;;
9413;SDS011;4746;35.664;139.738;2022-08-26T01:19:40;28.40;;;18.05;;
9413;SDS011;4746;35.664;139.738;2022-08-26T01:22:18;24.48;;;17.23;;
9413;SDS011;4746;35.664;139.738;2022-08-26T01:24:57;26.33;;;18.40;;
9413;SDS011;4746;35.664;139.738;2022-08-26T01:27:27;26.02;;;17.88;;
9413;SDS011;4746;35.664;139.738;2022-08-26T01:29:57;25.98;;;19.27;;
9413;SDS011;4746;35.664;139.738;2022-08-26T01:32:26;28.15;;;18.88;;
9413;SDS011;4746;35.664;139.738;2022-08-26T01:34:56;34.70;;;18.50;;
9413;SDS011;4746;35.664;139.738;2022-08-26T01:37:25;34.33;;;19.65;;
9413;SDS011;4746;35.664;139.738;2022-08-26T01:39:59;27.20;;;18.42;;
9413;SDS011;4746;35.664;139.738;2022-08-26T01:42:27;25.85;;;19.65;;
9413;SDS011;4746;35.664;139.738;2022-08-26T01:44:59;27.67;;;18.67;;
9413;SDS011;4746;35.664;139.738;2022-08-26T01:47:43;27.58;;;18.63;;
9413;SDS011;4746;35.664;139.738;2022-08-26T01:50:19;30.30;;;19.92;;
9413;SDS011;4746;35.664;139.738;2022-08-26T01:52:51;25.00;;;18.63;;
9413;SDS011;4746;35.664;139.738;2022-08-26T01:55:20;27.45;;;18.60;;
9413;SDS011;4746;35.664;139.738;2022-08-26T01:57:50;35.70;;;21.13;;
9413;SDS011;4746;35.664;139.738;2022-08-26T02:00:21;30.85;;;20.13;;
9413;SDS011;4746;35.664;139.738;2022-08-26T02:02:51;30.15;;;19.70;;
9413;SDS011;4746;35.664;139.738;2022-08-26T02:05:52;24.83;;;20.38;;
9413;SDS011;4746;35.664;139.738;2022-08-26T02:08:27;29.55;;;19.45;;
9413;SDS011;4746;35.664;139.738;2022-08-26T02:11:07;27.50;;;19.88;;
9413;SDS011;4746;35.664;139.738;2022-08-26T02:13:39;29.30;;;19.83;;
9413;SDS011;4746;35.664;139.738;2022-08-26T02:16:11;20.23;;;17.67;;
9413;SDS011;4746;35.664;139.738;2022-08-26T02:18:44;27.88;;;19.30;;
9413;SDS011;4746;35.664;139.738;2022-08-26T02:21:13;21.67;;;17.95;;
9413;SDS011;4746;35.664;139.738;2022-08-26T02:23:42;26.98;;;19.45;;
9413;SDS011;4746;35.664;139.738;2022-08-26T02:26:13;28.30;;;18.75;;
9413;SDS011;4746;35.664;139.738;2022-08-26T02:28:54;31.20;;;19.67;;
9413;SDS011;4746;35.664;139.738;2022-08-26T02:31:30;25.17;;;18.90;;
9413;SDS011;4746;35.664;139.738;2022-08-26T02:34:20;28.15;;;18.92;;
9413;SDS011;4746;35.664;139.738;2022-08-26T02:37:01;31.08;;;20.13;;
9413;SDS011;4746;35.664;139.738;2022-08-26T02:39:35;28.25;;;19.95;;
9413;SDS011;4746;35.664;139.738;2022-08-26T02:42:04;28.70;;;20.48;;
9413;SDS011;4746;35.664;139.738;2022-08-26T02:44:33;29.52;;;20.20;;
9413;SDS011;4746;35.664;139.738;2022-08-26T02:47:01;30.75;;;20.00;;
9413;SDS011;4746;35.664;139.738;2022-08-26T02:49:31;31.58;;;20.15;;
9413;SDS011;4746;35.664;139.738;2022-08-26T02:51:58;28.35;;;20.83;;
9413;SDS011;4746;35.664;139.738;2022-08-26T02:54:26;26.73;;;20.40;;
9413;SDS011;4746;35.664;139.738;2022-08-26T02:56:53;27.90;;;20.75;;
9413;SDS011;4746;35.664;139.738;2022-08-26T02:59:21;32.45;;;21.52;;
9413;SDS011;4746;35.664;139.738;2022-08-26T03:01:48;30.67;;;21.05;;
9413;SDS011;4746;35.664;139.738;2022-08-26T03:04:16;25.10;;;20.30;;
9413;SDS011;4746;35.664;139.738;2022-08-26T03:06:43;28.92;;;20.48;;
9413;SDS011;4746;35.664;139.738;2022-08-26T03:09:11;26.50;;;19.88;;
9413;SDS011;4746;35.664;139.738;2022-08-26T03:11:38;29.38;;;20.50;;
9413;SDS011;4746;35.664;139.738;2022-08-26T03:14:06;27.45;;;19.45;;
9413;SDS011;4746;35.664;139.738;2022-08-26T03:16:35;27.45;;;20.42;;
9413;SDS011;4746;35.664;139.738;2022-08-26T03:19:03;30.10;;;21.65;;
9413;SDS011;4746;35.664;139.738;2022-08-26T03:21:34;33.75;;;23.08;;
9413;SDS011;4746;35.664;139.738;2022-08-26T03:24:03;32.28;;;22.08;;
9413;SDS011;4746;35.664;139.738;2022-08-26T03:26:31;27.85;;;23.15;;
9413;SDS011;4746;35.664;139.738;2022-08-26T03:28:59;26.60;;;21.98;;
9413;SDS011;4746;35.664;139.738;2022-08-26T03:31:44;26.13;;;21.45;;
9413;SDS011;4746;35.664;139.738;2022-08-26T03:34:12;27.35;;;21.50;;
9413;SDS011;4746;35.664;139.738;2022-08-26T03:36:40;26.63;;;21.90;;
9413;SDS011;4746;35.664;139.738;2022-08-26T03:39:09;24.73;;;21.25;;
9413;SDS011;4746;35.664;139.738;2022-08-26T03:41:38;29.23;;;20.95;;
9413;SDS011;4746;35.664;139.738;2022-08-26T03:44:09;26.30;;;21.25;;
9413;SDS011;4746;35.664;139.738;2022-08-26T03:46:38;27.30;;;22.33;;
9413;SDS011;4746;35.664;139.738;2022-08-26T03:49:06;26.08;;;22.00;;
9413;SDS011;4746;35.664;139.738;2022-08-26T03:51:34;32.78;;;24.33;;
9413;SDS011;4746;35.664;139.738;2022-08-26T03:54:03;31.20;;;27.48;;
9413;SDS011;4746;35.664;139.738;2022-08-26T03:56:33;31.83;;;27.10;;
9413;SDS011;4746;35.664;139.738;2022-08-26T03:59:01;28.45;;;25.48;;
9413;SDS011;4746;35.664;139.738;2022-08-26T04:01:30;33.15;;;25.73;;
9413;SDS011;4746;35.664;139.738;2022-08-26T04:03:58;33.05;;;27.48;;
9413;SDS011;4746;35.664;139.738;2022-08-26T04:06:31;29.98;;;25.90;;
9413;SDS011;4746;35.664;139.738;2022-08-26T04:09:06;28.77;;;23.70;;
9413;SDS011;4746;35.664;139.738;2022-08-26T04:11:39;26.85;;;22.13;;
9413;SDS011;4746;35.664;139.738;2022-08-26T04:14:13;26.17;;;22.92;;
9413;SDS011;4746;35.664;139.738;2022-08-26T04:16:46;25.33;;;22.63;;
9413;SDS011;4746;35.664;139.738;2022-08-26T04:19:16;27.55;;;22.98;;
9413;SDS011;4746;35.664;139.738;2022-08-26T04:21:44;27.77;;;24.17;;
9413;SDS011;4746;35.664;139.738;2022-08-26T04:24:18;23.60;;;21.13;;
9413;SDS011;4746;35.664;139.738;2022-08-26T04:26:48;25.20;;;22.20;;
9413;SDS011;4746;35.664;139.738;2022-08-26T04:29:22;22.58;;;20.13;;
9413;SDS011;4746;35.664;139.738;2022-08-26T04:31:52;23.83;;;21.15;;
9413;SDS011;4746;35.664;139.738;2022-08-26T04:34:25;24.50;;;19.35;;
9413;SDS011;4746;35.664;139.738;2022-08-26T04:36:55;22.45;;;20.17;;
9413;SDS011;4746;35.664;139.738;2022-08-26T04:39:24;21.20;;;18.88;;
9413;SDS011;4746;35.664;139.738;2022-08-26T04:41:52;21.00;;;18.83;;
9413;SDS011;4746;35.664;139.738;2022-08-26T04:44:20;22.50;;;18.90;;
9413;SDS011;4746;35.664;139.738;2022-08-26T04:46:52;20.27;;;18.23;;
9413;SDS011;4746;35.664;139.738;2022-08-26T04:49:20;22.70;;;19.85;;
9413;SDS011;4746;35.664;139.738;2022-08-26T04:51:48;23.38;;;20.98;;
9413;SDS011;4746;35.664;139.738;2022-08-26T04:54:15;22.95;;;20.02;;
9413;SDS011;4746;35.664;139.738;2022-08-26T04:56:44;25.00;;;22.35;;
9413;SDS011;4746;35.664;139.738;2022-08-26T04:59:14;23.27;;;20.98;;
9413;SDS011;4746;35.664;139.738;2022-08-26T05:01:47;22.08;;;19.92;;
9413;SDS011;4746;35.664;139.738;2022-08-26T05:04:20;19.77;;;17.92;;
9413;SDS011;4746;35.664;139.738;2022-08-26T05:06:48;23.25;;;20.75;;
9413;SDS011;4746;35.664;139.738;2022-08-26T05:09:16;23.08;;;20.58;;
9413;SDS011;4746;35.664;139.738;2022-08-26T05:11:43;23.15;;;20.77;;
9413;SDS011;4746;35.664;139.738;2022-08-26T05:14:13;22.52;;;20.23;;
9413;SDS011;4746;35.664;139.738;2022-08-26T05:16:41;21.45;;;19.40;;
9413;SDS011;4746;35.664;139.738;2022-08-26T05:19:08;24.40;;;19.42;;
9413;SDS011;4746;35.664;139.738;2022-08-26T05:21:36;22.70;;;20.05;;
9413;SDS011;4746;35.664;139.738;2022-08-26T05:24:04;23.27;;;20.92;;
9413;SDS011;4746;35.664;139.738;2022-08-26T05:26:32;25.27;;;21.42;;
9413;SDS011;4746;35.664;139.738;2022-08-26T05:29:00;24.35;;;21.63;;
9413;SDS011;4746;35.664;139.738;2022-08-26T05:31:29;26.15;;;21.02;;
9413;SDS011;4746;35.664;139.738;2022-08-26T05:33:59;25.67;;;22.95;;
9413;SDS011;4746;35.664;139.738;2022-08-26T05:36:29;27.48;;;22.02;;
9413;SDS011;4746;35.664;139.738;2022-08-26T05:38:59;24.00;;;21.33;;
9413;SDS011;4746;35.664;139.738;2022-08-26T05:41:32;28.20;;;22.33;;
9413;SDS011;4746;35.664;139.738;2022-08-26T05:44:03;23.52;;;20.75;;
9413;SDS011;4746;35.664;139.738;2022-08-26T05:46:36;24.10;;;21.60;;
9413;SDS011;4746;35.664;139.738;2022-08-26T05:49:06;25.27;;;20.48;;
9413;SDS011;4746;35.664;139.738;2022-08-26T05:51:34;22.02;;;19.73;;
9413;SDS011;4746;35.664;139.738;2022-08-26T05:54:03;22.00;;;18.63;;
9413;SDS011;4746;35.664;139.738;2022-08-26T05:56:34;21.40;;;19.05;;
9413;SDS011;4746;35.664;139.738;2022-08-26T05:59:02;20.30;;;18.25;;
9413;SDS011;4746;35.664;139.738;2022-08-26T06:01:29;19.08;;;17.30;;
9413;SDS011;4746;35.664;139.738;2022-08-26T06:03:58;18.52;;;16.58;;
9413;SDS011;4746;35.664;139.738;2022-08-26T06:06:30;18.88;;;16.85;;
9413;SDS011;4746;35.664;139.738;2022-08-26T06:09:01;17.38;;;15.68;;
9413;SDS011;4746;35.664;139.738;2022-08-26T06:11:32;17.02;;;14.55;;
9413;SDS011;4746;35.664;139.738;2022-08-26T06:14:00;17.00;;;15.35;;
9413;SDS011;4746;35.664;139.738;2022-08-26T06:16:31;15.80;;;14.20;;
9413;SDS011;4746;35.664;139.738;2022-08-26T06:19:03;17.92;;;16.33;;
9413;SDS011;4746;35.664;139.738;2022-08-26T06:21:34;19.38;;;17.65;;
9413;SDS011;4746;35.664;139.738;2022-08-26T06:24:05;19.50;;;17.70;;
9413;SDS011;4746;35.664;139.738;2022-08-26T06:26:55;20.63;;;18.77;;
9413;SDS011;4746;35.664;139.738;2022-08-26T06:29:26;20.38;;;18.63;;
9413;SDS011;4746;35.664;139.738;2022-08-26T06:31:58;20.52;;;18.55;;
9413;SDS011;4746;35.664;139.738;2022-08-26T06:34:27;15.02;;;13.60;;
9413;SDS011;4746;35.664;139.738;2022-08-26T06:36:55;14.48;;;13.13;;
9413;SDS011;4746;35.664;139.738;2022-08-26T06:39:26;16.60;;;14.93;;
9413;SDS011;4746;35.664;139.738;2022-08-26T06:41:55;14.30;;;12.98;;
9413;SDS011;4746;35.664;139.738;2022-08-26T06:44:25;13.68;;;12.25;;
9413;SDS011;4746;35.664;139.738;2022-08-26T06:46:52;15.90;;;12.48;;
9413;SDS011;4746;35.664;139.738;2022-08-26T06:49:20;12.63;;;11.40;;
9413;SDS011;4746;35.664;139.738;2022-08-26T06:51:47;12.52;;;11.30;;
9413;SDS011;4746;35.664;139.738;2022-08-26T06:54:15;12.20;;;10.95;;
9413;SDS011;4746;35.664;139.738;2022-08-26T06:56:42;13.60;;;12.32;;
9413;SDS011;4746;35.664;139.738;2022-08-26T06:59:10;12.10;;;11.00;;
9413;SDS011;4746;35.664;139.738;2022-08-26T07:01:39;12.07;;;10.98;;
9413;SDS011;4746;35.664;139.738;2022-08-26T07:04:12;12.98;;;11.63;;
9413;SDS011;4746;35.664;139.738;2022-08-26T07:06:42;11.93;;;10.75;;
9413;SDS011;4746;35.664;139.738;2022-08-26T07:09:14;13.48;;;12.20;;
9413;SDS011;4746;35.664;139.738;2022-08-26T07:11:43;11.88;;;10.63;;
9413;SDS011;4746;35.664;139.738;2022-08-26T07:14:11;12.90;;;11.60;;
9413;SDS011;4746;35.664;139.738;2022-08-26T07:16:39;12.48;;;11.23;;
9413;SDS011;4746;35.664;139.738;2022-08-26T07:19:07;11.70;;;10.75;;
9413;SDS011;4746;35.664;139.738;2022-08-26T07:21:35;11.98;;;10.77;;
9413;SDS011;4746;35.664;139.738;2022-08-26T07:24:03;10.20;;;9.30;;
9413;SDS011;4746;35.664;139.738;2022-08-26T07:26:33;10.32;;;9.43;;
9413;SDS011;4746;35.664;139.738;2022-08-26T07:29:01;10.65;;;9.80;;
9413;SDS011;4746;35.664;139.738;2022-08-26T07:31:29;8.88;;;8.18;;
9413;SDS011;4746;35.664;139.738;2022-08-26T07:34:02;8.63;;;7.82;;
9413;SDS011;4746;35.664;139.738;2022-08-26T07:36:31;9.95;;;8.95;;
9413;SDS011;4746;35.664;139.738;2022-08-26T07:38:59;8.82;;;8.02;;
9413;SDS011;4746;35.664;139.738;2022-08-26T07:41:26;8.98;;;7.72;;
9413;SDS011;4746;35.664;139.738;2022-08-26T07:43:54;10.75;;;9.23;;
9413;SDS011;4746;35.664;139.738;2022-08-26T07:46:21;8.88;;;8.02;;
9413;SDS011;4746;35.664;139.738;2022-08-26T07:48:49;9.63;;;8.63;;
9413;SDS011;4746;35.664;139.738;2022-08-26T07:51:18;8.80;;;7.93;;
9413;SDS011;4746;35.664;139.738;2022-08-26T07:53:48;9.18;;;8.30;;
9413;SDS011;4746;35.664;139.738;2022-08-26T07:56:16;9.77;;;8.77;;
9413;SDS011;4746;35.664;139.738;2022-08-26T07:58:43;9.95;;;8.82;;
9413;SDS011;4746;35.664;139.738;2022-08-26T08:01:11;10.25;;;8.80;;
9413;SDS011;4746;35.664;139.738;2022-08-26T08:03:38;10.38;;;8.07;;
9413;SDS011;4746;35.664;139.738;2022-08-26T08:06:06;9.73;;;8.75;;
9413;SDS011;4746;35.664;139.738;2022-08-26T08:08:34;10.73;;;9.70;;
9413;SDS011;4746;35.664;139.738;2022-08-26T08:11:04;10.25;;;8.40;;
9413;SDS011;4746;35.664;139.738;2022-08-26T08:13:32;9.60;;;8.65;;
9413;SDS011;4746;35.664;139.738;2022-08-26T08:15:59;10.57;;;8.38;;
9413;SDS011;4746;35.664;139.738;2022-08-26T08:18:27;10.27;;;9.27;;
9413;SDS011;4746;35.664;139.738;2022-08-26T08:20:54;12.15;;;9.57;;
9413;SDS011;4746;35.664;139.738;2022-08-26T08:23:22;11.48;;;8.93;;
9413;SDS011;4746;35.664;139.738;2022-08-26T08:25:50;9.75;;;8.73;;
9413;SDS011;4746;35.664;139.738;2022-08-26T08:28:30;9.98;;;9.05;;
9413;SDS011;4746;35.664;139.738;2022-08-26T08:30:58;11.23;;;9.60;;
9413;SDS011;4746;35.664;139.738;2022-08-26T08:33:26;9.80;;;8.88;;
9413;SDS011;4746;35.664;139.738;2022-08-26T08:35:58;12.85;;;9.25;;
9413;SDS011;4746;35.664;139.738;2022-08-26T08:38:26;13.25;;;9.27;;
9413;SDS011;4746;35.664;139.738;2022-08-26T08:40:54;10.93;;;9.82;;
9413;SDS011;4746;35.664;139.738;2022-08-26T08:46:21;11.82;;;9.50;;
9413;SDS011;4746;35.664;139.738;2022-08-26T08:48:50;9.13;;;8.20;;
9413;SDS011;4746;35.664;139.738;2022-08-26T08:54:05;10.02;;;9.13;;
9413;SDS011;4746;35.664;139.738;2022-08-26T08:56:43;9.77;;;8.77;;
9413;SDS011;4746;35.664;139.738;2022-08-26T08:59:23;9.13;;;8.23;;
9413;SDS011;4746;35.664;139.738;2022-08-26T09:05:02;10.32;;;9.25;;
9413;SDS011;4746;35.664;139.738;2022-08-26T09:07:43;9.50;;;8.50;;
9413;SDS011;4746;35.664;139.738;2022-08-26T09:10:47;9.70;;;8.77;;
9413;SDS011;4746;35.664;139.738;2022-08-26T09:13:25;13.63;;;10.13;;
9413;SDS011;4746;35.664;139.738;2022-08-26T09:21:21;11.70;;;9.98;;
9413;SDS011;4746;35.664;139.738;2022-08-26T09:23:51;11.82;;;10.55;;
9413;SDS011;4746;35.664;139.738;2022-08-26T09:29:08;12.25;;;10.05;;
9413;SDS011;4746;35.664;139.738;2022-08-26T09:31:48;10.95;;;9.95;;
9413;SDS011;4746;35.664;139.738;2022-08-26T09:34:38;13.82;;;12.57;;
9413;SDS011;4746;35.664;139.738;2022-08-26T09:37:41;11.25;;;10.13;;
9413;SDS011;4746;35.664;139.738;2022-08-26T09:40:32;12.32;;;11.07;;
9413;SDS011;4746;35.664;139.738;2022-08-26T09:43:09;14.07;;;12.43;;
9413;SDS011;4746;35.664;139.738;2022-08-26T09:45:48;13.52;;;11.93;;
9413;SDS011;4746;35.664;139.738;2022-08-26T09:48:43;16.42;;;11.98;;
9413;SDS011;4746;35.664;139.738;2022-08-26T09:53:55;14.13;;;12.55;;
9413;SDS011;4746;35.664;139.738;2022-08-26T09:56:30;13.07;;;11.70;;
9413;SDS011;4746;35.664;139.738;2022-08-26T09:59:07;13.82;;;10.82;;
9413;SDS011;4746;35.664;139.738;2022-08-26T10:01:38;13.50;;;12.07;;
9413;SDS011;4746;35.664;139.738;2022-08-26T10:09:33;15.52;;;13.38;;
9413;SDS011;4746;35.664;139.738;2022-08-26T10:12:09;14.35;;;12.85;;
9413;SDS011;4746;35.664;139.738;2022-08-26T10:15:07;14.75;;;13.38;;
9413;SDS011;4746;35.664;139.738;2022-08-26T10:17:48;13.00;;;11.00;;
9413;SDS011;4746;35.664;139.738;2022-08-26T10:20:37;14.15;;;12.85;;
9413;SDS011;4746;35.664;139.738;2022-08-26T10:23:16;15.48;;;13.63;;
9413;SDS011;4746;35.664;139.738;2022-08-26T10:25:57;15.27;;;12.75;;
9413;SDS011;4746;35.664;139.738;2022-08-26T10:28:48;15.63;;;12.70;;
9413;SDS011;4746;35.664;139.738;2022-08-26T10:34:20;14.38;;;12.90;;
9413;SDS011;4746;35.664;139.738;2022-08-26T10:42:31;17.60;;;15.80;;
9413;SDS011;4746;35.664;139.738;2022-08-26T10:45:04;20.52;;;16.45;;
9413;SDS011;4746;35.664;139.738;2022-08-26T10:50:38;20.67;;;18.48;;
9413;SDS011;4746;35.664;139.738;2022-08-26T10:59:08;16.38;;;14.25;;
9413;SDS011;4746;35.664;139.738;2022-08-26T11:07:34;14.32;;;12.73;;
9413;SDS011;4746;35.664;139.738;2022-08-26T11:18:00;14.40;;;12.55;;
9413;SDS011;4746;35.664;139.738;2022-08-26T11:20:45;16.33;;;12.90;;
9413;SDS011;4746;35.664;139.738;2022-08-26T11:28:35;21.02;;;16.63;;
9413;SDS011;4746;35.664;139.738;2022-08-26T11:31:10;16.50;;;15.00;;
9413;SDS011;4746;35.664;139.738;2022-08-26T11:34:04;19.23;;;16.42;;
9413;SDS011;4746;35.664;139.738;2022-08-26T11:44:52;16.10;;;14.60;;
9413;SDS011;4746;35.664;139.738;2022-08-26T11:47:26;16.10;;;14.55;;
9413;SDS011;4746;35.664;139.738;2022-08-26T11:52:55;13.38;;;12.13;;
9413;SDS011;4746;35.664;139.738;2022-08-26T11:55:31;14.02;;;12.55;;
9413;SDS011;4746;35.664;139.738;2022-08-26T11:58:07;15.30;;;13.80;;
9413;SDS011;4746;35.664;139.738;2022-08-26T12:00:47;18.58;;;16.70;;
9413;SDS011;4746;35.664;139.738;2022-08-26T12:03:39;20.88;;;18.77;;
9413;SDS011;4746;35.664;139.738;2022-08-26T12:06:24;18.88;;;16.67;;
9413;SDS011;4746;35.664;139.738;2022-08-26T12:08:59;18.58;;;16.60;;
9413;SDS011;4746;35.664;139.738;2022-08-26T12:11:35;18.25;;;14.85;;
9413;SDS011;4746;35.664;139.738;2022-08-26T12:14:05;15.77;;;14.18;;
9413;SDS011;4746;35.664;139.738;2022-08-26T12:16:42;16.98;;;14.55;;
9413;SDS011;4746;35.664;139.738;2022-08-26T12:22:41;17.77;;;14.48;;
9413;SDS011;4746;35.664;139.738;2022-08-26T12:24:55;19.92;;;15.65;;
9413;SDS011;4746;35.664;139.738;2022-08-26T12:27:28;15.10;;;13.50;;
9413;SDS011;4746;35.664;139.738;2022-08-26T12:30:06;18.70;;;16.85;;
9413;SDS011;4746;35.664;139.738;2022-08-26T12:32:50;16.80;;;15.05;;
9413;SDS011;4746;35.664;139.738;2022-08-26T12:35:36;16.85;;;15.15;;
9413;SDS011;4746;35.664;139.738;2022-08-26T12:38:06;19.30;;;15.57;;
9413;SDS011;4746;35.664;139.738;2022-08-26T12:40:39;18.20;;;15.30;;
9413;SDS011;4746;35.664;139.738;2022-08-26T12:43:11;17.55;;;13.48;;
9413;SDS011;4746;35.664;139.738;2022-08-26T12:46:01;14.73;;;13.30;;
9413;SDS011;4746;35.664;139.738;2022-08-26T12:48:30;14.52;;;13.23;;
9413;SDS011;4746;35.664;139.738;2022-08-26T12:51:30;15.88;;;12.57;;
9413;SDS011;4746;35.664;139.738;2022-08-26T12:54:06;14.98;;;13.43;;
9413;SDS011;4746;35.664;139.738;2022-08-26T12:56:40;12.95;;;11.70;;
9413;SDS011;4746;35.664;139.738;2022-08-26T13:01:51;13.45;;;11.15;;
9413;SDS011;4746;35.664;139.738;2022-08-26T13:04:31;14.48;;;11.65;;
9413;SDS011;4746;35.664;139.738;2022-08-26T13:07:19;14.35;;;12.43;;
9413;SDS011;4746;35.664;139.738;2022-08-26T13:09:52;13.50;;;12.05;;
9413;SDS011;4746;35.664;139.738;2022-08-26T13:12:23;16.00;;;11.82;;
9413;SDS011;4746;35.664;139.738;2022-08-26T13:15:02;13.43;;;12.02;;
9413;SDS011;4746;35.664;139.738;2022-08-26T13:17:36;15.23;;;12.65;;
9413;SDS011;4746;35.664;139.738;2022-08-26T13:20:03;13.48;;;12.25;;
9413;SDS011;4746;35.664;139.738;2022-08-26T13:22:31;13.77;;;12.43;;
9413;SDS011;4746;35.664;139.738;2022-08-26T13:24:59;18.58;;;13.77;;
9413;SDS011;4746;35.664;139.738;2022-08-26T13:27:27;15.60;;;13.82;;
9413;SDS011;4746;35.664;139.738;2022-08-26T13:29:55;15.82;;;14.02;;
9413;SDS011;4746;35.664;139.738;2022-08-26T13:32:23;19.90;;;15.60;;
9413;SDS011;4746;35.664;139.738;2022-08-26T13:34:51;16.13;;;14.55;;
9413;SDS011;4746;35.664;139.738;2022-08-26T13:37:22;19.42;;;14.77;;
9413;SDS011;4746;35.664;139.738;2022-08-26T13:39:51;17.95;;;16.23;;
9413;SDS011;4746;35.664;139.738;2022-08-26T13:42:19;18.23;;;15.98;;
9413;SDS011;4746;35.664;139.738;2022-08-26T13:44:50;19.35;;;17.25;;
9413;SDS011;4746;35.664;139.738;2022-08-26T13:47:22;17.80;;;16.08;;
9413;SDS011;4746;35.664;139.738;2022-08-26T13:49:50;21.60;;;15.10;;
9413;SDS011;4746;35.664;139.738;2022-08-26T13:52:17;18.30;;;14.25;;
9413;SDS011;4746;35.664;139.738;2022-08-26T13:54:46;19.63;;;14.45;;
9413;SDS011;4746;35.664;139.738;2022-08-26T13:57:13;19.73;;;15.70;;
9413;SDS011;4746;35.664;139.738;2022-08-26T13:59:41;19.88;;;15.07;;
9413;SDS011;4746;35.664;139.738;2022-08-26T14:02:13;15.23;;;13.63;;
9413;SDS011;4746;35.664;139.738;2022-08-26T14:04:41;16.85;;;13.65;;
9413;SDS011;4746;35.664;139.738;2022-08-26T14:07:08;16.50;;;13.18;;
9413;SDS011;4746;35.664;139.738;2022-08-26T14:09:36;21.15;;;13.27;;
9413;SDS011;4746;35.664;139.738;2022-08-26T14:12:03;17.20;;;14.75;;
9413;SDS011;4746;35.664;139.738;2022-08-26T14:14:31;16.65;;;15.15;;
9413;SDS011;4746;35.664;139.738;2022-08-26T14:16:58;18.98;;;15.05;;
9413;SDS011;4746;35.664;139.738;2022-08-26T14:19:27;20.08;;;13.90;;
9413;SDS011;4746;35.664;139.738;2022-08-26T14:21:56;16.10;;;14.25;;
9413;SDS011;4746;35.664;139.738;2022-08-26T14:24:25;19.23;;;13.85;;
9413;SDS011;4746;35.664;139.738;2022-08-26T14:26:54;17.77;;;13.50;;
9413;SDS011;4746;35.664;139.738;2022-08-26T14:29:21;20.23;;;15.50;;
9413;SDS011;4746;35.664;139.738;2022-08-26T14:31:49;18.30;;;16.23;;
9413;SDS011;4746;35.664;139.738;2022-08-26T14:34:17;15.77;;;14.15;;
9413;SDS011;4746;35.664;139.738;2022-08-26T14:36:44;20.63;;;18.27;;
9413;SDS011;4746;35.664;139.738;2022-08-26T14:39:12;17.90;;;16.13;;
9413;SDS011;4746;35.664;139.738;2022-08-26T14:41:48;15.55;;;14.02;;
9413;SDS011;4746;35.664;139.738;2022-08-26T14:44:21;20.02;;;14.98;;
9413;SDS011;4746;35.664;139.738;2022-08-26T14:46:56;17.55;;;14.32;;
9413;SDS011;4746;35.664;139.738;2022-08-26T14:49:26;21.55;;;17.20;;
9413;SDS011;4746;35.664;139.738;2022-08-26T14:51:55;16.83;;;15.10;;
9413;SDS011;4746;35.664;139.738;2022-08-26T14:54:24;18.20;;;15.93;;
9413;SDS011;4746;35.664;139.738;2022-08-26T14:56:57;20.30;;;16.75;;
9413;SDS011;4746;35.664;139.738;2022-08-26T15:02:24;20.38;;;18.08;;
9413;SDS011;4746;35.664;139.738;2022-08-26T15:04:51;19.95;;;17.88;;
9413;SDS011;4746;35.664;139.738;2022-08-26T15:07:19;21.85;;;18.08;;
9413;SDS011;4746;35.664;139.738;2022-08-26T15:09:46;26.15;;;20.40;;
9413;SDS011;4746;35.664;139.738;2022-08-26T15:12:14;21.92;;;19.45;;
9413;SDS011;4746;35.664;139.738;2022-08-26T15:14:41;24.90;;;20.98;;
9413;SDS011;4746;35.664;139.738;2022-08-26T15:17:09;21.75;;;19.58;;
9413;SDS011;4746;35.664;139.738;2022-08-26T15:19:37;23.35;;;18.73;;
9413;SDS011;4746;35.664;139.738;2022-08-26T15:22:05;21.73;;;19.48;;
9413;SDS011;4746;35.664;139.738;2022-08-26T15:24:32;21.85;;;19.08;;
9413;SDS011;4746;35.664;139.738;2022-08-26T15:27:00;23.25;;;20.42;;
9413;SDS011;4746;35.664;139.738;2022-08-26T15:29:28;23.48;;;18.15;;
9413;SDS011;4746;35.664;139.738;2022-08-26T15:31:55;24.42;;;21.73;;
9413;SDS011;4746;35.664;139.738;2022-08-26T15:34:23;22.25;;;19.92;;
9413;SDS011;4746;35.664;139.738;2022-08-26T15:36:51;27.50;;;21.55;;
9413;SDS011;4746;35.664;139.738;2022-08-26T15:39:19;23.83;;;21.23;;
9413;SDS011;4746;35.664;139.738;2022-08-26T15:41:47;25.05;;;22.55;;
9413;SDS011;4746;35.664;139.738;2022-08-26T15:44:15;23.52;;;21.27;;
9413;SDS011;4746;35.664;139.738;2022-08-26T15:46:44;25.55;;;22.88;;
9413;SDS011;4746;35.664;139.738;2022-08-26T15:49:13;25.05;;;22.67;;
9413;SDS011;4746;35.664;139.738;2022-08-26T15:51:42;25.40;;;22.80;;
9413;SDS011;4746;35.664;139.738;2022-08-26T15:54:11;28.02;;;24.45;;
9413;SDS011;4746;35.664;139.738;2022-08-26T15:56:41;29.17;;;26.23;;
9413;SDS011;4746;35.664;139.738;2022-08-26T15:59:10;28.92;;;25.85;;
9413;SDS011;4746;35.664;139.738;2022-08-26T16:01:38;29.73;;;26.42;;
9413;SDS011;4746;35.664;139.738;2022-08-26T16:04:05;29.00;;;25.95;;
9413;SDS011;4746;35.664;139.738;2022-08-26T16:06:35;30.13;;;27.33;;
9413;SDS011;4746;35.664;139.738;2022-08-26T16:09:06;33.40;;;30.10;;
9413;SDS011;4746;35.664;139.738;2022-08-26T16:11:34;35.00;;;31.13;;